Ash, North Carolina
Current Conditions -  °F | °C
As of 5:53 PM on Sunday 21 Dec 2014 (Local Time) from KCRE Reporting Station
Overcast Overcast  
Wind Chill:   Ceiling: 2700
Heat Index:   Visibility: 10mi
Dew Point:   Wind: 5mph
Humidity: 80%   Direction: 40°NE
Pressure: 30.19"   Gusts: NA
Location:  34.04°N, 78.52°W
Report Text: KCRE 212253Z 04004KT 10SM OVC027 09/06 A3019 RMK AO1 RAB03E49 SLP224 P0000 T00890056
Loading
Personal Weather Stations






























Interactive Weather Map New forecast layout! Learn more

10-Day Weather Forecast

Advertisements
Track Severe Weather on mobile